Stead, Nevada
Current Conditions -  °F | °C
As of 12:35 AM on Saturday 29 Nov 2014 (Local Time) from KRTS Reporting Station
Broken Clouds Broken Clouds  
Wind Chill: 23°   Ceiling: 7500
Heat Index: 37°   Visibility: 10mi
Dew Point: 30°   Wind: 43mph
Humidity: 75%   Direction: 220°SW
Pressure: 29.8"   Gusts: 52mph
Location:  39.7378°N, 119.889°W
Report Text: KRTS 290835Z AUTO 22037G45KT 10SM FEW050 BKN075 BKN080 03/M01 A2980 RMK AO2
Loading
Personal Weather Stations






























Interactive Weather Map New forecast layout! Learn more

10-Day Weather Forecast

Advertisements
Track Severe Weather on mobile